sensor_id;sensor_type;location;lat;lon;timestamp;P1;durP1;ratioP1;P2;durP2;ratioP2
48987;SDS011;34799;51.440;-2.534;2023-11-19T00:00:10;29.80;;;4.35;;
48987;SDS011;34799;51.440;-2.534;2023-11-19T00:02:39;36.00;;;4.55;;
48987;SDS011;34799;51.440;-2.534;2023-11-19T00:05:07;36.78;;;4.63;;
48987;SDS011;34799;51.440;-2.534;2023-11-19T00:07:36;27.05;;;3.65;;
48987;SDS011;34799;51.440;-2.534;2023-11-19T00:10:11;35.40;;;4.65;;
48987;SDS011;34799;51.440;-2.534;2023-11-19T00:12:41;29.10;;;4.50;;
48987;SDS011;34799;51.440;-2.534;2023-11-19T00:15:11;31.45;;;3.97;;
48987;SDS011;34799;51.440;-2.534;2023-11-19T00:17:44;33.58;;;3.28;;
48987;SDS011;34799;51.440;-2.534;2023-11-19T00:20:12;27.95;;;3.63;;
48987;SDS011;34799;51.440;-2.534;2023-11-19T00:22:40;30.83;;;3.50;;
48987;SDS011;34799;51.440;-2.534;2023-11-19T00:25:12;34.75;;;3.30;;
48987;SDS011;34799;51.440;-2.534;2023-11-19T00:27:39;39.13;;;3.88;;
48987;SDS011;34799;51.440;-2.534;2023-11-19T00:30:06;30.42;;;4.20;;
48987;SDS011;34799;51.440;-2.534;2023-11-19T00:32:35;36.85;;;3.97;;
48987;SDS011;34799;51.440;-2.534;2023-11-19T00:35:03;27.38;;;4.40;;
48987;SDS011;34799;51.440;-2.534;2023-11-19T00:37:31;32.30;;;4.55;;
48987;SDS011;34799;51.440;-2.534;2023-11-19T00:39:58;32.70;;;3.97;;
48987;SDS011;34799;51.440;-2.534;2023-11-19T00:42:26;29.73;;;2.95;;
48987;SDS011;34799;51.440;-2.534;2023-11-19T00:44:53;33.42;;;5.78;;
48987;SDS011;34799;51.440;-2.534;2023-11-19T00:47:21;27.83;;;3.88;;
48987;SDS011;34799;51.440;-2.534;2023-11-19T00:49:49;29.88;;;3.17;;
48987;SDS011;34799;51.440;-2.534;2023-11-19T00:52:17;29.00;;;3.90;;
48987;SDS011;34799;51.440;-2.534;2023-11-19T00:54:46;41.47;;;4.47;;
48987;SDS011;34799;51.440;-2.534;2023-11-19T00:57:14;26.98;;;3.65;;
48987;SDS011;34799;51.440;-2.534;2023-11-19T00:59:42;32.13;;;3.90;;
48987;SDS011;34799;51.440;-2.534;2023-11-19T01:02:09;31.52;;;4.43;;
48987;SDS011;34799;51.440;-2.534;2023-11-19T01:04:36;29.17;;;4.07;;
48987;SDS011;34799;51.440;-2.534;2023-11-19T01:07:04;33.20;;;3.40;;
48987;SDS011;34799;51.440;-2.534;2023-11-19T01:09:32;28.02;;;3.33;;
48987;SDS011;34799;51.440;-2.534;2023-11-19T01:12:01;31.70;;;4.93;;
48987;SDS011;34799;51.440;-2.534;2023-11-19T01:14:29;32.88;;;4.20;;
48987;SDS011;34799;51.440;-2.534;2023-11-19T01:16:57;31.90;;;3.83;;
48987;SDS011;34799;51.440;-2.534;2023-11-19T01:19:25;32.08;;;3.20;;
48987;SDS011;34799;51.440;-2.534;2023-11-19T01:21:55;25.90;;;2.83;;
48987;SDS011;34799;51.440;-2.534;2023-11-19T01:24:23;33.35;;;3.83;;
48987;SDS011;34799;51.440;-2.534;2023-11-19T01:26:50;30.35;;;3.22;;
48987;SDS011;34799;51.440;-2.534;2023-11-19T01:29:20;33.33;;;3.35;;
48987;SDS011;34799;51.440;-2.534;2023-11-19T01:31:47;27.13;;;3.85;;
48987;SDS011;34799;51.440;-2.534;2023-11-19T01:34:18;35.97;;;4.85;;
48987;SDS011;34799;51.440;-2.534;2023-11-19T01:36:46;32.95;;;3.58;;
48987;SDS011;34799;51.440;-2.534;2023-11-19T01:39:15;30.33;;;4.15;;
48987;SDS011;34799;51.440;-2.534;2023-11-19T01:41:42;27.35;;;3.42;;
48987;SDS011;34799;51.440;-2.534;2023-11-19T01:44:11;29.23;;;3.63;;
48987;SDS011;34799;51.440;-2.534;2023-11-19T01:46:41;23.77;;;2.67;;
48987;SDS011;34799;51.440;-2.534;2023-11-19T01:49:10;28.63;;;3.88;;
48987;SDS011;34799;51.440;-2.534;2023-11-19T01:51:39;27.90;;;3.22;;
48987;SDS011;34799;51.440;-2.534;2023-11-19T01:54:07;36.50;;;3.88;;
48987;SDS011;34799;51.440;-2.534;2023-11-19T01:56:36;26.50;;;3.00;;
48987;SDS011;34799;51.440;-2.534;2023-11-19T01:59:05;24.50;;;2.50;;
48987;SDS011;34799;51.440;-2.534;2023-11-19T02:01:32;33.85;;;3.17;;
48987;SDS011;34799;51.440;-2.534;2023-11-19T02:04:04;23.65;;;3.20;;
48987;SDS011;34799;51.440;-2.534;2023-11-19T02:06:37;22.67;;;3.00;;
48987;SDS011;34799;51.440;-2.534;2023-11-19T02:09:08;36.90;;;4.53;;
48987;SDS011;34799;51.440;-2.534;2023-11-19T02:11:36;34.13;;;3.35;;
48987;SDS011;34799;51.440;-2.534;2023-11-19T02:14:07;28.27;;;3.08;;
48987;SDS011;34799;51.440;-2.534;2023-11-19T02:16:34;25.00;;;2.97;;
48987;SDS011;34799;51.440;-2.534;2023-11-19T02:19:02;24.55;;;2.78;;
48987;SDS011;34799;51.440;-2.534;2023-11-19T02:21:31;28.88;;;3.38;;
48987;SDS011;34799;51.440;-2.534;2023-11-19T02:23:58;24.15;;;3.08;;
48987;SDS011;34799;51.440;-2.534;2023-11-19T02:26:34;29.35;;;3.80;;
48987;SDS011;34799;51.440;-2.534;2023-11-19T02:29:12;29.10;;;2.33;;
48987;SDS011;34799;51.440;-2.534;2023-11-19T02:31:41;33.72;;;3.15;;
48987;SDS011;34799;51.440;-2.534;2023-11-19T02:34:10;21.17;;;2.92;;
48987;SDS011;34799;51.440;-2.534;2023-11-19T02:36:39;25.05;;;2.92;;
48987;SDS011;34799;51.440;-2.534;2023-11-19T02:39:08;27.10;;;2.83;;
48987;SDS011;34799;51.440;-2.534;2023-11-19T02:41:39;24.10;;;3.30;;
48987;SDS011;34799;51.440;-2.534;2023-11-19T02:44:07;17.73;;;2.03;;
48987;SDS011;34799;51.440;-2.534;2023-11-19T02:46:34;30.33;;;2.90;;
48987;SDS011;34799;51.440;-2.534;2023-11-19T02:49:02;27.02;;;2.72;;
48987;SDS011;34799;51.440;-2.534;2023-11-19T02:51:33;23.15;;;3.50;;
48987;SDS011;34799;51.440;-2.534;2023-11-19T02:54:01;25.38;;;3.28;;
48987;SDS011;34799;51.440;-2.534;2023-11-19T02:56:30;32.95;;;4.10;;
48987;SDS011;34799;51.440;-2.534;2023-11-19T02:59:01;25.35;;;2.85;;
48987;SDS011;34799;51.440;-2.534;2023-11-19T03:01:38;24.65;;;2.90;;
48987;SDS011;34799;51.440;-2.534;2023-11-19T03:04:10;26.35;;;3.78;;
48987;SDS011;34799;51.440;-2.534;2023-11-19T03:07:08;27.13;;;2.58;;
48987;SDS011;34799;51.440;-2.534;2023-11-19T03:09:37;31.30;;;3.67;;
48987;SDS011;34799;51.440;-2.534;2023-11-19T03:12:11;16.70;;;1.90;;
48987;SDS011;34799;51.440;-2.534;2023-11-19T03:14:47;22.23;;;3.13;;
48987;SDS011;34799;51.440;-2.534;2023-11-19T03:17:19;31.40;;;3.53;;
48987;SDS011;34799;51.440;-2.534;2023-11-19T03:19:54;25.25;;;3.40;;
48987;SDS011;34799;51.440;-2.534;2023-11-19T03:22:22;22.05;;;2.03;;
48987;SDS011;34799;51.440;-2.534;2023-11-19T03:24:50;25.23;;;3.88;;
48987;SDS011;34799;51.440;-2.534;2023-11-19T03:27:25;27.50;;;3.58;;
48987;SDS011;34799;51.440;-2.534;2023-11-19T03:30:08;27.50;;;3.88;;
48987;SDS011;34799;51.440;-2.534;2023-11-19T03:32:45;25.92;;;4.78;;
48987;SDS011;34799;51.440;-2.534;2023-11-19T03:35:15;24.13;;;2.63;;
48987;SDS011;34799;51.440;-2.534;2023-11-19T03:37:43;25.88;;;4.40;;
48987;SDS011;34799;51.440;-2.534;2023-11-19T03:40:15;27.35;;;2.72;;
48987;SDS011;34799;51.440;-2.534;2023-11-19T03:43:02;33.60;;;3.15;;
48987;SDS011;34799;51.440;-2.534;2023-11-19T03:45:32;25.10;;;3.13;;
48987;SDS011;34799;51.440;-2.534;2023-11-19T03:48:01;26.70;;;3.13;;
48987;SDS011;34799;51.440;-2.534;2023-11-19T03:50:32;19.30;;;2.53;;
48987;SDS011;34799;51.440;-2.534;2023-11-19T03:53:03;25.98;;;3.25;;
48987;SDS011;34799;51.440;-2.534;2023-11-19T04:00:59;31.60;;;3.25;;
48987;SDS011;34799;51.440;-2.534;2023-11-19T04:03:29;32.88;;;2.90;;
48987;SDS011;34799;51.440;-2.534;2023-11-19T04:05:58;19.63;;;3.22;;
48987;SDS011;34799;51.440;-2.534;2023-11-19T04:08:28;28.55;;;2.55;;
48987;SDS011;34799;51.440;-2.534;2023-11-19T04:10:56;21.80;;;2.30;;
48987;SDS011;34799;51.440;-2.534;2023-11-19T04:13:25;26.05;;;2.25;;
48987;SDS011;34799;51.440;-2.534;2023-11-19T04:15:53;23.02;;;2.70;;
48987;SDS011;34799;51.440;-2.534;2023-11-19T04:18:21;18.55;;;2.40;;
48987;SDS011;34799;51.440;-2.534;2023-11-19T04:20:48;20.90;;;2.38;;
48987;SDS011;34799;51.440;-2.534;2023-11-19T04:23:18;23.70;;;3.03;;
48987;SDS011;34799;51.440;-2.534;2023-11-19T04:25:46;30.98;;;3.42;;
48987;SDS011;34799;51.440;-2.534;2023-11-19T04:28:15;19.67;;;2.33;;
48987;SDS011;34799;51.440;-2.534;2023-11-19T04:30:43;13.50;;;1.20;;
48987;SDS011;34799;51.440;-2.534;2023-11-19T04:33:11;16.75;;;3.00;;
48987;SDS011;34799;51.440;-2.534;2023-11-19T04:35:42;18.25;;;2.58;;
48987;SDS011;34799;51.440;-2.534;2023-11-19T04:38:10;19.25;;;1.75;;
48987;SDS011;34799;51.440;-2.534;2023-11-19T04:40:38;19.38;;;1.80;;
48987;SDS011;34799;51.440;-2.534;2023-11-19T04:43:06;21.13;;;2.15;;
48987;SDS011;34799;51.440;-2.534;2023-11-19T04:45:35;20.95;;;1.85;;
48987;SDS011;34799;51.440;-2.534;2023-11-19T05:04:16;16.65;;;1.75;;
48987;SDS011;34799;51.440;-2.534;2023-11-19T05:06:46;20.20;;;1.98;;
48987;SDS011;34799;51.440;-2.534;2023-11-19T05:09:14;20.55;;;1.67;;
48987;SDS011;34799;51.440;-2.534;2023-11-19T05:11:50;22.90;;;1.60;;
48987;SDS011;34799;51.440;-2.534;2023-11-19T05:25:09;28.38;;;2.60;;
48987;SDS011;34799;51.440;-2.534;2023-11-19T05:27:37;28.10;;;2.92;;
48987;SDS011;34799;51.440;-2.534;2023-11-19T05:30:06;20.83;;;2.42;;
48987;SDS011;34799;51.440;-2.534;2023-11-19T05:32:37;26.35;;;5.22;;
48987;SDS011;34799;51.440;-2.534;2023-11-19T05:35:08;23.33;;;2.50;;
48987;SDS011;34799;51.440;-2.534;2023-11-19T05:37:47;21.48;;;2.42;;
48987;SDS011;34799;51.440;-2.534;2023-11-19T05:40:15;27.88;;;3.45;;
48987;SDS011;34799;51.440;-2.534;2023-11-19T05:42:43;19.15;;;2.20;;
48987;SDS011;34799;51.440;-2.534;2023-11-19T05:45:11;20.67;;;2.00;;
48987;SDS011;34799;51.440;-2.534;2023-11-19T05:47:41;21.65;;;2.92;;
48987;SDS011;34799;51.440;-2.534;2023-11-19T05:50:16;26.98;;;3.13;;
48987;SDS011;34799;51.440;-2.534;2023-11-19T05:52:48;26.17;;;2.95;;
48987;SDS011;34799;51.440;-2.534;2023-11-19T05:55:15;18.95;;;3.28;;
48987;SDS011;34799;51.440;-2.534;2023-11-19T05:57:44;25.67;;;4.05;;
48987;SDS011;34799;51.440;-2.534;2023-11-19T06:00:13;23.00;;;3.10;;
48987;SDS011;34799;51.440;-2.534;2023-11-19T06:02:43;33.97;;;3.78;;
48987;SDS011;34799;51.440;-2.534;2023-11-19T06:05:11;25.35;;;3.13;;
48987;SDS011;34799;51.440;-2.534;2023-11-19T06:07:39;20.00;;;2.28;;
48987;SDS011;34799;51.440;-2.534;2023-11-19T06:10:09;34.28;;;2.65;;
48987;SDS011;34799;51.440;-2.534;2023-11-19T06:12:37;26.67;;;2.80;;
48987;SDS011;34799;51.440;-2.534;2023-11-19T06:15:08;25.50;;;3.75;;
48987;SDS011;34799;51.440;-2.534;2023-11-19T06:17:40;26.42;;;3.25;;
48987;SDS011;34799;51.440;-2.534;2023-11-19T06:20:15;21.47;;;2.50;;
48987;SDS011;34799;51.440;-2.534;2023-11-19T06:22:44;22.00;;;2.00;;
48987;SDS011;34799;51.440;-2.534;2023-11-19T06:25:12;20.63;;;3.25;;
48987;SDS011;34799;51.440;-2.534;2023-11-19T06:27:46;21.35;;;1.77;;
48987;SDS011;34799;51.440;-2.534;2023-11-19T06:30:15;23.08;;;2.78;;
48987;SDS011;34799;51.440;-2.534;2023-11-19T06:32:43;16.08;;;2.55;;
48987;SDS011;34799;51.440;-2.534;2023-11-19T06:35:14;34.20;;;4.28;;
48987;SDS011;34799;51.440;-2.534;2023-11-19T06:37:41;22.13;;;2.97;;
48987;SDS011;34799;51.440;-2.534;2023-11-19T06:40:11;23.75;;;2.15;;
48987;SDS011;34799;51.440;-2.534;2023-11-19T06:42:41;25.42;;;2.97;;
48987;SDS011;34799;51.440;-2.534;2023-11-19T06:45:09;21.33;;;2.45;;
48987;SDS011;34799;51.440;-2.534;2023-11-19T06:47:44;19.17;;;2.75;;
48987;SDS011;34799;51.440;-2.534;2023-11-19T06:50:39;28.33;;;2.92;;
48987;SDS011;34799;51.440;-2.534;2023-11-19T06:53:07;22.48;;;2.50;;
48987;SDS011;34799;51.440;-2.534;2023-11-19T06:55:37;19.98;;;1.75;;
48987;SDS011;34799;51.440;-2.534;2023-11-19T06:58:07;31.50;;;2.95;;
48987;SDS011;34799;51.440;-2.534;2023-11-19T07:00:35;24.50;;;1.77;;
48987;SDS011;34799;51.440;-2.534;2023-11-19T07:03:06;15.15;;;1.50;;
48987;SDS011;34799;51.440;-2.534;2023-11-19T07:05:38;28.95;;;3.00;;
48987;SDS011;34799;51.440;-2.534;2023-11-19T07:08:06;23.23;;;2.00;;
48987;SDS011;34799;51.440;-2.534;2023-11-19T07:10:40;17.30;;;2.65;;
48987;SDS011;34799;51.440;-2.534;2023-11-19T07:13:08;18.98;;;2.03;;
48987;SDS011;34799;51.440;-2.534;2023-11-19T07:15:38;22.90;;;2.88;;
48987;SDS011;34799;51.440;-2.534;2023-11-19T07:18:10;16.77;;;1.70;;
48987;SDS011;34799;51.440;-2.534;2023-11-19T07:20:40;18.20;;;2.42;;
48987;SDS011;34799;51.440;-2.534;2023-11-19T07:23:09;13.88;;;1.35;;
48987;SDS011;34799;51.440;-2.534;2023-11-19T07:25:43;18.52;;;2.75;;
48987;SDS011;34799;51.440;-2.534;2023-11-19T07:28:18;18.52;;;2.00;;
48987;SDS011;34799;51.440;-2.534;2023-11-19T07:30:46;14.23;;;1.63;;
48987;SDS011;34799;51.440;-2.534;2023-11-19T07:33:15;19.45;;;1.65;;
48987;SDS011;34799;51.440;-2.534;2023-11-19T07:35:44;14.95;;;1.15;;
48987;SDS011;34799;51.440;-2.534;2023-11-19T07:38:12;24.35;;;1.95;;
48987;SDS011;34799;51.440;-2.534;2023-11-19T07:40:41;18.35;;;2.33;;
48987;SDS011;34799;51.440;-2.534;2023-11-19T07:43:22;16.10;;;2.90;;
48987;SDS011;34799;51.440;-2.534;2023-11-19T07:45:49;20.10;;;2.60;;
48987;SDS011;34799;51.440;-2.534;2023-11-19T07:48:18;22.67;;;2.33;;
48987;SDS011;34799;51.440;-2.534;2023-11-19T07:50:52;15.35;;;1.60;;
48987;SDS011;34799;51.440;-2.534;2023-11-19T07:53:21;17.35;;;2.60;;
48987;SDS011;34799;51.440;-2.534;2023-11-19T07:55:51;18.17;;;2.05;;
48987;SDS011;34799;51.440;-2.534;2023-11-19T07:58:20;26.80;;;2.80;;
48987;SDS011;34799;51.440;-2.534;2023-11-19T08:00:49;19.75;;;2.20;;
48987;SDS011;34799;51.440;-2.534;2023-11-19T08:03:21;21.48;;;2.53;;
48987;SDS011;34799;51.440;-2.534;2023-11-19T08:05:49;22.02;;;2.65;;
48987;SDS011;34799;51.440;-2.534;2023-11-19T08:11:27;25.75;;;2.28;;
48987;SDS011;34799;51.440;-2.534;2023-11-19T08:18:12;25.95;;;2.50;;
48987;SDS011;34799;51.440;-2.534;2023-11-19T08:20:47;23.67;;;3.05;;
48987;SDS011;34799;51.440;-2.534;2023-11-19T08:23:25;21.55;;;3.08;;
48987;SDS011;34799;51.440;-2.534;2023-11-19T08:25:55;19.98;;;3.03;;
48987;SDS011;34799;51.440;-2.534;2023-11-19T08:32:36;18.40;;;1.80;;
48987;SDS011;34799;51.440;-2.534;2023-11-19T08:35:04;22.80;;;2.20;;
48987;SDS011;34799;51.440;-2.534;2023-11-19T08:58:47;26.05;;;2.60;;
48987;SDS011;34799;51.440;-2.534;2023-11-19T09:01:14;20.65;;;2.38;;
48987;SDS011;34799;51.440;-2.534;2023-11-19T09:03:42;26.20;;;2.78;;
48987;SDS011;34799;51.440;-2.534;2023-11-19T09:06:09;19.88;;;2.08;;
48987;SDS011;34799;51.440;-2.534;2023-11-19T09:08:36;23.75;;;2.25;;
48987;SDS011;34799;51.440;-2.534;2023-11-19T09:11:06;30.08;;;4.72;;
48987;SDS011;34799;51.440;-2.534;2023-11-19T09:13:35;15.68;;;1.95;;
48987;SDS011;34799;51.440;-2.534;2023-11-19T09:16:02;18.23;;;2.17;;
48987;SDS011;34799;51.440;-2.534;2023-11-19T09:18:31;13.25;;;1.77;;
48987;SDS011;34799;51.440;-2.534;2023-11-19T09:20:59;14.38;;;2.10;;
48987;SDS011;34799;51.440;-2.534;2023-11-19T09:23:28;24.85;;;2.65;;
48987;SDS011;34799;51.440;-2.534;2023-11-19T09:25:59;16.40;;;2.20;;
48987;SDS011;34799;51.440;-2.534;2023-11-19T09:28:27;18.27;;;2.80;;
48987;SDS011;34799;51.440;-2.534;2023-11-19T09:30:54;16.67;;;1.83;;
48987;SDS011;34799;51.440;-2.534;2023-11-19T09:33:22;20.48;;;1.30;;
48987;SDS011;34799;51.440;-2.534;2023-11-19T09:35:50;19.20;;;2.30;;
48987;SDS011;34799;51.440;-2.534;2023-11-19T09:38:18;16.63;;;2.67;;
48987;SDS011;34799;51.440;-2.534;2023-11-19T09:40:46;23.20;;;2.60;;
48987;SDS011;34799;51.440;-2.534;2023-11-19T09:43:15;19.52;;;2.08;;
48987;SDS011;34799;51.440;-2.534;2023-11-19T09:45:51;19.33;;;2.00;;
48987;SDS011;34799;51.440;-2.534;2023-11-19T09:48:19;21.48;;;2.83;;
48987;SDS011;34799;51.440;-2.534;2023-11-19T09:50:46;9.95;;;1.45;;
48987;SDS011;34799;51.440;-2.534;2023-11-19T09:53:14;13.07;;;1.77;;
48987;SDS011;34799;51.440;-2.534;2023-11-19T09:55:42;22.83;;;1.85;;
48987;SDS011;34799;51.440;-2.534;2023-11-19T09:58:10;11.23;;;2.00;;
48987;SDS011;34799;51.440;-2.534;2023-11-19T10:00:40;25.88;;;2.08;;
48987;SDS011;34799;51.440;-2.534;2023-11-19T10:03:08;19.75;;;2.05;;
48987;SDS011;34799;51.440;-2.534;2023-11-19T10:05:39;13.90;;;1.95;;
48987;SDS011;34799;51.440;-2.534;2023-11-19T10:08:07;17.52;;;1.35;;
48987;SDS011;34799;51.440;-2.534;2023-11-19T10:10:34;19.52;;;1.80;;
48987;SDS011;34799;51.440;-2.534;2023-11-19T10:13:02;14.20;;;1.73;;
48987;SDS011;34799;51.440;-2.534;2023-11-19T10:15:32;12.32;;;1.00;;
48987;SDS011;34799;51.440;-2.534;2023-11-19T10:18:05;11.15;;;1.77;;
48987;SDS011;34799;51.440;-2.534;2023-11-19T10:20:35;17.50;;;1.15;;
48987;SDS011;34799;51.440;-2.534;2023-11-19T10:23:04;12.52;;;1.40;;
48987;SDS011;34799;51.440;-2.534;2023-11-19T10:25:32;14.43;;;1.88;;
48987;SDS011;34799;51.440;-2.534;2023-11-19T10:28:01;13.25;;;1.10;;
48987;SDS011;34799;51.440;-2.534;2023-11-19T10:30:30;12.23;;;2.05;;
48987;SDS011;34799;51.440;-2.534;2023-11-19T10:33:10;13.63;;;1.08;;
48987;SDS011;34799;51.440;-2.534;2023-11-19T10:35:51;13.15;;;1.63;;
48987;SDS011;34799;51.440;-2.534;2023-11-19T10:38:27;8.63;;;0.88;;
48987;SDS011;34799;51.440;-2.534;2023-11-19T10:40:54;15.43;;;1.73;;
48987;SDS011;34799;51.440;-2.534;2023-11-19T10:43:22;9.80;;;1.30;;
48987;SDS011;34799;51.440;-2.534;2023-11-19T10:45:50;14.27;;;2.00;;
48987;SDS011;34799;51.440;-2.534;2023-11-19T10:48:18;10.77;;;1.35;;
48987;SDS011;34799;51.440;-2.534;2023-11-19T10:50:49;10.40;;;1.20;;
48987;SDS011;34799;51.440;-2.534;2023-11-19T10:53:21;11.82;;;1.23;;
48987;SDS011;34799;51.440;-2.534;2023-11-19T10:55:53;10.02;;;1.17;;
48987;SDS011;34799;51.440;-2.534;2023-11-19T10:58:24;4.88;;;0.52;;
48987;SDS011;34799;51.440;-2.534;2023-11-19T11:00:55;9.98;;;1.35;;
48987;SDS011;34799;51.440;-2.534;2023-11-19T11:03:27;7.82;;;0.77;;
48987;SDS011;34799;51.440;-2.534;2023-11-19T11:06:01;12.68;;;2.13;;
48987;SDS011;34799;51.440;-2.534;2023-11-19T11:08:30;8.73;;;1.38;;
48987;SDS011;34799;51.440;-2.534;2023-11-19T11:10:58;10.07;;;1.38;;
48987;SDS011;34799;51.440;-2.534;2023-11-19T11:13:26;12.23;;;1.08;;
48987;SDS011;34799;51.440;-2.534;2023-11-19T11:15:55;9.90;;;0.65;;
48987;SDS011;34799;51.440;-2.534;2023-11-19T11:18:28;8.65;;;1.00;;
48987;SDS011;34799;51.440;-2.534;2023-11-19T11:21:05;13.68;;;1.20;;
48987;SDS011;34799;51.440;-2.534;2023-11-19T11:29:01;10.55;;;1.00;;
48987;SDS011;34799;51.440;-2.534;2023-11-19T11:34:35;7.13;;;1.27;;
48987;SDS011;34799;51.440;-2.534;2023-11-19T11:39:35;8.48;;;1.13;;
48987;SDS011;34799;51.440;-2.534;2023-11-19T11:45:34;9.02;;;0.70;;
48987;SDS011;34799;51.440;-2.534;2023-11-19T11:48:04;9.02;;;1.45;;
48987;SDS011;34799;51.440;-2.534;2023-11-19T11:50:50;11.38;;;0.98;;
48987;SDS011;34799;51.440;-2.534;2023-11-19T11:53:20;6.50;;;0.30;;
48987;SDS011;34799;51.440;-2.534;2023-11-19T11:55:52;3.97;;;0.45;;
48987;SDS011;34799;51.440;-2.534;2023-11-19T11:58:31;9.57;;;0.50;;
48987;SDS011;34799;51.440;-2.534;2023-11-19T12:01:00;8.80;;;0.75;;
48987;SDS011;34799;51.440;-2.534;2023-11-19T12:03:29;4.53;;;0.50;;
48987;SDS011;34799;51.440;-2.534;2023-11-19T12:05:57;4.38;;;0.40;;
48987;SDS011;34799;51.440;-2.534;2023-11-19T12:08:25;5.95;;;0.50;;
48987;SDS011;34799;51.440;-2.534;2023-11-19T12:10:54;5.35;;;0.28;;
48987;SDS011;34799;51.440;-2.534;2023-11-19T12:13:42;5.35;;;0.43;;
48987;SDS011;34799;51.440;-2.534;2023-11-19T12:16:15;9.93;;;0.55;;
48987;SDS011;34799;51.440;-2.534;2023-11-19T12:18:42;5.25;;;0.50;;
48987;SDS011;34799;51.440;-2.534;2023-11-19T12:21:12;2.85;;;0.65;;
48987;SDS011;34799;51.440;-2.534;2023-11-19T12:23:57;3.40;;;0.20;;
48987;SDS011;34799;51.440;-2.534;2023-11-19T12:26:31;3.20;;;0.20;;
48987;SDS011;34799;51.440;-2.534;2023-11-19T12:29:03;5.35;;;0.22;;
48987;SDS011;34799;51.440;-2.534;2023-11-19T12:31:32;5.88;;;0.40;;
48987;SDS011;34799;51.440;-2.534;2023-11-19T12:34:05;4.35;;;0.28;;
48987;SDS011;34799;51.440;-2.534;2023-11-19T12:36:33;4.22;;;0.40;;
48987;SDS011;34799;51.440;-2.534;2023-11-19T12:39:01;3.30;;;0.50;;
48987;SDS011;34799;51.440;-2.534;2023-11-19T12:41:29;6.10;;;0.52;;
48987;SDS011;34799;51.440;-2.534;2023-11-19T12:44:10;4.57;;;0.30;;
48987;SDS011;34799;51.440;-2.534;2023-11-19T12:46:38;8.45;;;1.05;;
48987;SDS011;34799;51.440;-2.534;2023-11-19T12:49:05;8.15;;;0.88;;
48987;SDS011;34799;51.440;-2.534;2023-11-19T12:51:33;9.15;;;1.02;;
48987;SDS011;34799;51.440;-2.534;2023-11-19T12:54:00;7.82;;;0.80;;
48987;SDS011;34799;51.440;-2.534;2023-11-19T12:56:28;9.70;;;0.95;;
48987;SDS011;34799;51.440;-2.534;2023-11-19T12:58:57;8.20;;;1.02;;
48987;SDS011;34799;51.440;-2.534;2023-11-19T13:01:25;13.07;;;1.10;;
48987;SDS011;34799;51.440;-2.534;2023-11-19T13:03:53;13.35;;;1.05;;
48987;SDS011;34799;51.440;-2.534;2023-11-19T13:06:20;10.50;;;1.52;;
48987;SDS011;34799;51.440;-2.534;2023-11-19T13:08:49;8.70;;;0.65;;
48987;SDS011;34799;51.440;-2.534;2023-11-19T13:11:32;12.77;;;1.00;;
48987;SDS011;34799;51.440;-2.534;2023-11-19T13:14:01;16.98;;;1.50;;
48987;SDS011;34799;51.440;-2.534;2023-11-19T13:16:31;11.55;;;1.50;;
48987;SDS011;34799;51.440;-2.534;2023-11-19T13:18:58;16.17;;;2.10;;
48987;SDS011;34799;51.440;-2.534;2023-11-19T13:21:26;14.48;;;1.58;;
48987;SDS011;34799;51.440;-2.534;2023-11-19T13:23:53;17.55;;;2.55;;
48987;SDS011;34799;51.440;-2.534;2023-11-19T13:26:21;19.55;;;2.58;;
48987;SDS011;34799;51.440;-2.534;2023-11-19T13:28:49;23.15;;;2.08;;
48987;SDS011;34799;51.440;-2.534;2023-11-19T13:31:18;15.18;;;2.63;;
48987;SDS011;34799;51.440;-2.534;2023-11-19T13:33:46;13.95;;;2.90;;
48987;SDS011;34799;51.440;-2.534;2023-11-19T13:36:14;17.63;;;1.13;;
48987;SDS011;34799;51.440;-2.534;2023-11-19T13:38:43;21.10;;;3.20;;
48987;SDS011;34799;51.440;-2.534;2023-11-19T13:41:14;13.93;;;2.25;;
48987;SDS011;34799;51.440;-2.534;2023-11-19T13:43:41;12.82;;;1.65;;
48987;SDS011;34799;51.440;-2.534;2023-11-19T13:46:11;17.55;;;1.92;;
48987;SDS011;34799;51.440;-2.534;2023-11-19T13:48:38;16.98;;;2.42;;
48987;SDS011;34799;51.440;-2.534;2023-11-19T13:51:06;11.32;;;2.20;;
48987;SDS011;34799;51.440;-2.534;2023-11-19T13:53:34;27.55;;;2.13;;
48987;SDS011;34799;51.440;-2.534;2023-11-19T13:56:04;13.10;;;1.17;;
48987;SDS011;34799;51.440;-2.534;2023-11-19T13:58:33;17.48;;;2.25;;
48987;SDS011;34799;51.440;-2.534;2023-11-19T14:01:01;18.42;;;1.98;;
48987;SDS011;34799;51.440;-2.534;2023-11-19T14:03:30;12.05;;;2.00;;
48987;SDS011;34799;51.440;-2.534;2023-11-19T14:05:57;16.80;;;2.03;;
48987;SDS011;34799;51.440;-2.534;2023-11-19T14:08:25;13.75;;;1.65;;
48987;SDS011;34799;51.440;-2.534;2023-11-19T14:10:54;11.77;;;2.03;;
48987;SDS011;34799;51.440;-2.534;2023-11-19T14:13:23;17.25;;;1.98;;
48987;SDS011;34799;51.440;-2.534;2023-11-19T14:15:51;20.38;;;2.28;;
48987;SDS011;34799;51.440;-2.534;2023-11-19T14:18:19;16.58;;;2.45;;
48987;SDS011;34799;51.440;-2.534;2023-11-19T14:20:46;16.70;;;1.70;;
48987;SDS011;34799;51.440;-2.534;2023-11-19T14:23:13;18.92;;;1.83;;
48987;SDS011;34799;51.440;-2.534;2023-11-19T14:25:40;15.18;;;1.45;;
48987;SDS011;34799;51.440;-2.534;2023-11-19T14:28:08;16.98;;;1.92;;
48987;SDS011;34799;51.440;-2.534;2023-11-19T14:30:35;15.77;;;2.13;;
48987;SDS011;34799;51.440;-2.534;2023-11-19T14:33:03;13.60;;;2.08;;
48987;SDS011;34799;51.440;-2.534;2023-11-19T14:35:31;16.90;;;1.77;;
48987;SDS011;34799;51.440;-2.534;2023-11-19T14:38:00;22.95;;;3.33;;
48987;SDS011;34799;51.440;-2.534;2023-11-19T14:40:31;18.38;;;2.20;;
48987;SDS011;34799;51.440;-2.534;2023-11-19T14:43:01;20.30;;;2.45;;
48987;SDS011;34799;51.440;-2.534;2023-11-19T14:45:28;22.65;;;2.92;;
48987;SDS011;34799;51.440;-2.534;2023-11-19T14:47:56;15.73;;;2.42;;
48987;SDS011;34799;51.440;-2.534;2023-11-19T14:50:24;20.95;;;2.05;;
48987;SDS011;34799;51.440;-2.534;2023-11-19T14:52:51;16.23;;;1.50;;
48987;SDS011;34799;51.440;-2.534;2023-11-19T14:55:19;22.65;;;1.90;;
48987;SDS011;34799;51.440;-2.534;2023-11-19T14:57:47;25.70;;;3.38;;
48987;SDS011;34799;51.440;-2.534;2023-11-19T15:00:20;17.60;;;3.20;;
48987;SDS011;34799;51.440;-2.534;2023-11-19T15:02:48;29.50;;;2.60;;
48987;SDS011;34799;51.440;-2.534;2023-11-19T15:05:15;25.63;;;2.53;;
48987;SDS011;34799;51.440;-2.534;2023-11-19T15:07:43;21.85;;;2.72;;
48987;SDS011;34799;51.440;-2.534;2023-11-19T15:10:11;21.40;;;3.42;;
48987;SDS011;34799;51.440;-2.534;2023-11-19T15:12:40;16.60;;;2.90;;
48987;SDS011;34799;51.440;-2.534;2023-11-19T15:15:08;30.55;;;3.10;;
48987;SDS011;34799;51.440;-2.534;2023-11-19T15:17:37;27.27;;;2.97;;
48987;SDS011;34799;51.440;-2.534;2023-11-19T15:20:05;21.50;;;2.85;;
48987;SDS011;34799;51.440;-2.534;2023-11-19T15:22:34;28.55;;;3.08;;
48987;SDS011;34799;51.440;-2.534;2023-11-19T15:25:01;23.33;;;4.60;;
48987;SDS011;34799;51.440;-2.534;2023-11-19T15:27:29;23.08;;;4.82;;
48987;SDS011;34799;51.440;-2.534;2023-11-19T15:29:56;21.33;;;3.00;;
48987;SDS011;34799;51.440;-2.534;2023-11-19T15:32:23;21.83;;;2.90;;
48987;SDS011;34799;51.440;-2.534;2023-11-19T15:34:50;18.08;;;2.60;;
48987;SDS011;34799;51.440;-2.534;2023-11-19T15:37:19;21.48;;;2.95;;
48987;SDS011;34799;51.440;-2.534;2023-11-19T15:39:46;19.67;;;2.13;;
48987;SDS011;34799;51.440;-2.534;2023-11-19T15:42:17;19.05;;;3.33;;
48987;SDS011;34799;51.440;-2.534;2023-11-19T15:44:44;20.17;;;3.08;;
48987;SDS011;34799;51.440;-2.534;2023-11-19T15:47:12;18.77;;;3.70;;
48987;SDS011;34799;51.440;-2.534;2023-11-19T15:49:41;18.60;;;2.92;;
48987;SDS011;34799;51.440;-2.534;2023-11-19T15:52:09;18.52;;;3.50;;
48987;SDS011;34799;51.440;-2.534;2023-11-19T15:54:37;26.17;;;3.47;;
48987;SDS011;34799;51.440;-2.534;2023-11-19T15:57:05;15.00;;;2.25;;